Aviation Digital Data Service (ADDS)

Output produced by METARs form (0143 UTC 16 January 2019)
found at http://www.aviationweather.gov/metar/data/
 
KCAE 160053Z 1601/1624 VRB03KT P6SM SCT035 
     TEMPO 1606/1608 3SM BR 
     FM160800 VRB03KT 1/2SM FG VV003 
     FM161400 VRB03KT P6SM SCT250
       
KCAK 152335Z 1600/1624 21010KT 2SM BR OVC008 
     FM160900 25012KT 2SM BR OVC004 
     FM161400 26012KT 3SM BR OVC008 
     FM161800 31012KT P6SM OVC010 
     FM162100 34012KT 6SM BR BKN020
       
KCAR 152334Z 1600/1624 VRB03KT P6SM SCT035 
     FM160900 18006KT P6SM OVC025 
     FM161400 18010KT 2SM -SN BR OVC015 
     FM161600 20010G18KT P6SM VCSH OVC015 
     FM162200 27010G18KT 3SM -SHSN BKN015 OVC025
       
TAF KCBM 151700Z 1517/1623 33006KT 9999 OVC020 620202 QNH3034INS 
     BECMG 1519/1520 33009KT 9999 SCT025 QNH3027INS 
     BECMG 1608/1609 29006KT 9999 BKN020 QNH3026INS 
     TEMPO 1609/1614 BKN015 TX08/1521Z TN01/1609Z
       
KCDC 152342Z 1600/1624 VRB04KT P6SM -RA BKN010 
     FM160900 21010KT P6SM VCSH SCT030 BKN060
       
KCDR 152336Z 1600/1624 VRB04KT P6SM BKN150 
     FM161600 18006KT P6SM OVC060 
     FM162200 25008KT P6SM VCSH OVC040
       
KCDS 152324Z 1600/1624 16011KT P6SM SCT250 
     FM161200 VRB06KT P6SM SCT250 
     TEMPO 1612/1616 3SM BR SCT006 
     FM161900 25015KT P6SM SCT250
       
KCEC 152338Z 1600/1624 13006KT P6SM VCSH BKN060 OVC080 
     FM160500 13009KT 6SM -RA SCT025 OVC050 
     FM160900 15013G20KT P6SM -RA SCT025 OVC040 WS020/20037KT 
     FM161600 15015G22KT 6SM RA BR BKN025 OVC040 WS020/19042KT 
     FM162100 15018G28KT 4SM -RA BR SCT025 OVC035
       
TAF KCEF 151900Z 1519/1701 32009KT 9999 FEW030 SCT200 BKN250 QNH3004INS 
     BECMG 1523/1524 VRB06KT 9999 SCT150 SCT200 QNH2998INS 
     BECMG 1610/1611 21006KT 9999 BKN030 BKN180 QNH2995INS 
     BECMG 1616/1617 25010G15KT 9999 BKN035 BKN230 620352 QNH2987INS 
     TEMPO 1623/1701 28015G25KT -SHSN BKN025 OVC050 610254 520004 TX02/1619Z
TNM05/1609Z
       
KCGI 152330Z 1600/1624 21008KT P6SM BKN012 
     FM160900 22006KT P6SM BKN008 
     FM161500 VRB04KT P6SM BKN010 
     FM161900 VRB04KT P6SM OVC020
       
KCHA 152320Z 1600/1624 32003KT P6SM BKN020 OVC030 
     FM161500 30003KT P6SM SCT020
       
KCHO 152340Z 1600/1624 27003KT P6SM SKC 
     FM160600 VRB03KT 5SM BR FEW250 
     FM161200 24003KT P6SM FEW250
       
KCHS 152342Z 1600/1624 00000KT P6SM BKN050 
     FM160500 00000KT P6SM FEW035 
     FM161400 27005KT P6SM SCT250
       
KCID 160102Z 1601/1624 26012KT P6SM OVC009 
     TEMPO 1601/1603 -DZ 
     FM160600 30010KT P6SM OVC008 
     FM161400 34009KT P6SM BKN020
       
KCKB 152339Z 1600/1624 24005KT P6SM BKN020 
     FM160200 24005KT P6SM OVC015 
     FM160700 23007G16KT 4SM -FZDZ OVC006 
     FM161700 25007G15KT 5SM -DZ OVC006
       
KCKV 152323Z 1600/1624 23003KT P6SM OVC025 
     FM160500 22005KT P6SM BKN035 
     FM161400 24005KT P6SM OVC020 
     FM162200 11003KT P6SM OVC050
       
KCLE 152335Z 1600/1706 22010KT 5SM BR OVC009 
     TEMPO 1600/1604 -FZDZSN 
     FM160600 23014KT 5SM BR SCT007 OVC010 
     FM161500 26012KT P6SM SCT007 OVC010 
     FM161900 34012G20KT 6SM BR BKN020 
     FM162300 36006KT P6SM BKN030
       
KCLL 152325Z 1600/1624 00000KT P6SM OVC035 
     FM160900 VRB03KT P6SM OVC025 
     FM161200 00000KT P6SM OVC015
       
KCLM 152340Z 1600/1624 08003KT P6SM SCT015 BKN120 OVC200 
     FM161400 VRB03KT P6SM OVC090
       
KCLT 152322Z 1600/1706 22003KT P6SM FEW030 
     FM161400 25004KT P6SM FEW200
       
KCMA 152355Z 1600/1624 15012G18KT 2SM RA BKN012 OVC025 
     FM160400 23010KT 4SM -SHRA BR SCT012 BKN025 
     FM160800 06009KT P6SM VCSH SCT025 BKN040 
     FM161700 07011KT 6SM -RA BR BKN025 OVC040 
     FM162300 09012G20KT 5SM -RA BR BKN012 OVC025
       
KCMH 160134Z 1602/1624 21008KT 4SM BR OVC008 
     TEMPO 1602/1606 2SM -FZDZ BR OVC004 
     FM160600 22008KT 2SM BR OVC004 
     FM161400 26009KT P6SM OVC006 
     FM161900 28009KT P6SM OVC011 
     FM162300 32007KT P6SM BKN015
       
KCMI 152325Z 1600/1624 22011KT 3SM BR OVC004 
     FM160300 23011KT 2SM -FZDZ BR OVC004 
     FM161400 36005KT P6SM OVC005 
     FM162100 VRB04KT P6SM BKN012
       
KCMX 152323Z 1600/1624 29024G35KT 1SM -SHSN BLSN BKN015 
     FM160200 31024G34KT 3SM -SHSN BLSN OVC019 
     FM160500 34022G35KT 6SM -SHSN BLSN OVC017 
     FM161200 35014G26KT 4SM -SHSN BKN014 
     FM161600 35009KT P6SM BKN013 
     FM161900 33006KT P6SM BKN024
       
KCNM 152330Z 1600/1624 15008KT P6SM FEW250
       
KCNU 152339Z 1600/1624 19005KT 6SM BR FEW010 
     FM160200 21005KT 4SM BR SCT010 
     FM160600 21006KT 3SM BR BKN009 
     FM160900 VRB05KT 1SM BR OVC004 
     FM161200 VRB03KT 3/4SM -DZ BR OVC004 
     FM161500 VRB03KT 4SM -DZ BR OVC003
       
KCNY 160128Z 1601/1624 33005KT 3/4SM -SN BR FEW013 OVC022 
     FM160200 VRB03KT 2SM -SN BR BKN008 OVC045 
     FM161000 29007KT 3SM -SHSN BKN008 OVC035 
     FM161600 34005KT P6SM VCSH BKN008 OVC035
       
KCOD 152320Z 1600/1624 VRB04KT P6SM FEW110 SCT200 
     FM160300 23006KT P6SM SCT140 BKN200 
     FM161800 22006KT P6SM SCT090 BKN140 AMD LTD TO CLD VIS AND WIND
       
KCOE 152325Z 1600/1624 03008KT P6SM SCT150 BKN200 
     FM160600 04007KT P6SM OVC060 
     FM161200 04007KT P6SM SCT100 SCT250
       
TAF KCOF 151900Z 1519/1701 35010G15KT 9999 FEW030 QNH3013INS 
     BECMG 1604/1605 32010KT 9999 FEW010 QNH3016INS 
     TEMPO 1610/1613 BKN005 
     BECMG 1615/1616 32010KT 9999 FEW028 SCT180 QNH3014INS 
     BECMG 1623/1624 35010KT 9999 SKC QNH3017INS TX20/1619Z TN06/1610Z
       
KCON 152320Z 1600/1624 00000KT P6SM SKC 
     FM161700 25010G18KT P6SM SCT250
       
KCOS 152322Z 1600/1624 11008KT P6SM BKN250 
     FM160700 VRB05KT P6SM BKN110 
     FM161400 12006KT P6SM SCT110 BKN200 
     FM161700 28008KT P6SM BKN150 
     FM162000 29015KT P6SM SCT150 SCT200
       
KCOU 152329Z 1600/1624 20006KT 4SM BR OVC005 
     FM160600 24006KT 2SM -FZDZ BR OVC003 
     FM161600 06005KT P6SM OVC003 
     FM162000 07005KT P6SM OVC007
       
KCPS 152329Z 1600/1624 21006KT P6SM OVC009 
     FM160700 24005KT 4SM -DZ OVC006 
     FM161000 25005KT 2SM -FZDZ BR OVC003 
     FM161400 30005KT 2SM -DZ BR OVC003 
     FM161600 33005KT P6SM OVC005 
     FM161800 02004KT P6SM OVC006
       
KCRE 152320Z 1600/1624 00000KT P6SM SCT050 
     FM160900 00000KT 5SM BR SKC 
     FM161500 27004KT P6SM SKC
       
KCRG 152346Z 1600/1624 35004KT P6SM BKN035 
     FM161500 32005KT P6SM FEW030 SCT250
       
KCRP 152333Z 1600/1624 03010KT 3SM -RA BR OVC005 
     FM160800 07007KT 1SM BR OVC005 
     TEMPO 1610/1614 1/2SM -DZ FG OVC002 
     FM161600 04007KT 4SM BR OVC005 
     FM162100 VRB05KT 6SM BR OVC015
       
KCRQ 152320Z 1600/1624 16007KT P6SM -SHRA FEW045 OVC060 
     FM160500 16010KT 6SM -RA BR SCT025 BKN035 
     TEMPO 1606/1610 3SM RA BR BKN022 
     FM161500 15008KT P6SM VCSH BKN045 
     FM161800 VRB05KT P6SM VCSH SCT025 BKN045
       
KCRW 152339Z 1600/1624 25003KT P6SM BKN025 
     FM160500 23003KT P6SM OVC015 
     FM161400 23004KT 4SM -DZ OVC010
       
KCSG 152320Z 1600/1624 30005KT P6SM FEW250 
     FM160200 00000KT P6SM FEW250 
     FM161500 33004KT P6SM FEW250
       
KCSM 152320Z 1600/1624 20013KT P6SM BKN250 
     FM160900 19009KT 4SM BR BKN015 
     TEMPO 1611/1614 1SM BR 
     FM161800 19011KT P6SM BKN250
       
KCSV 152323Z 1600/1624 27004KT P6SM OVC004 
     FM160400 33003KT P6SM BKN015 
     FM160800 25002KT 6SM BR OVC005 
     FM161500 22004KT P6SM BKN025
       
KCTB 152337Z 1600/1624 13012KT P6SM FEW070 SCT150 
     FM161100 VRB04KT P6SM SCT050 
     FM162100 01006KT P6SM FEW025 SCT180
       
KCUB 160052Z 1601/1624 VRB03KT P6SM SCT035 
     TEMPO 1606/1608 3SM BR 
     FM160800 VRB03KT 1/2SM FG VV003 
     FM161400 VRB03KT P6SM SCT250
       
KCVG 152331Z 1600/1706 22007KT 5SM BR OVC012 
     TEMPO 1600/1603 3SM -SN BR OVC009 
     FM160300 22007KT 4SM -SN BR OVC008 
     FM160700 23008KT 2SM BR OVC004 
     FM161500 26008KT P6SM BKN008 
     FM162200 36005KT P6SM BKN012
       
TAF KCVS 151800Z 1518/1624 24008KT 9999 SKC QNH3012INS 
     TEMPO 1520/1524 25014G24KT 
     BECMG 1601/1602 23008KT 9999 SKC QNH3008INS 
     BECMG 1617/1618 26015G27KT 9999 BKN250 QNH3003INS 
     BECMG 1620/1621 27022G35KT 9999 BKN250 510004 QNH2999INS TX16/1523Z
TN02/1613Z
       
KCWA 160054Z 1601/1624 27013G21KT 4SM -FZDZ BR OVC008 
     FM160200 30011G19KT P6SM OVC012 
     FM160700 32010G17KT P6SM BKN025 
     FM161200 34008KT P6SM SCT025 
     FM162100 VRB03KT P6SM SCT250 AMD LTD TO CLD VIS AND WIND 1604/1612
       
KCXO 152325Z 1600/1624 00000KT P6SM SCT045 BKN060 
     FM160700 00000KT P6SM OVC030 
     FM161300 00000KT P6SM BKN015 
     FM161800 15005KT P6SM VCSH OVC008
       
KCXP 152324Z 1600/1624 VRB04KT 2SM -SN BKN010 OVC025 
     FM160300 VRB04KT 6SM -SNRA SCT012 BKN025 OVC040 
     TEMPO 1603/1605 2SM -SN BKN010 OVC020 
     FM160700 19009KT P6SM VCSH SCT020 BKN030 OVC070 
     FM161800 14013G22KT P6SM SCT035 BKN070 WS020/20040KT
       
KCYS 152336Z 1600/1624 25007KT P6SM BKN100 
     FM161500 25007KT P6SM BKN070 
     FM162000 29013G20KT P6SM OVC070